TimeEDT,TemperatureF,Dew PointF,Humidity,Sea Level PressureIn,VisibilityMPH,Wind Direction,Wind SpeedMPH,Gust SpeedMPH,PrecipitationIn,Events,Conditions,WindDirDegrees,DateUTC
12:15 AM,59.0,45.9,62,29.87,10.0,WSW,3.5,-,N/A,,Clear,240,2012-10-20 04:15:00
12:35 AM,59.0,46.2,63,29.87,10.0,Calm,Calm,-,N/A,,Clear,0,2012-10-20 04:35:00
12:55 AM,58.6,45.9,63,29.88,10.0,Calm,Calm,-,N/A,,Clear,0,2012-10-20 04:55:00
1:15 AM,55.9,46.6,71,29.88,10.0,Calm,Calm,-,N/A,,Clear,0,2012-10-20 05:15:00
1:35 AM,54.9,46.6,74,29.88,10.0,Calm,Calm,-,N/A,,Clear,0,2012-10-20 05:35:00
1:55 AM,54.0,46.4,76,29.88,10.0,Calm,Calm,-,N/A,,Clear,0,2012-10-20 05:55:00
2:15 AM,53.8,46.4,76,29.88,10.0,Calm,Calm,-,N/A,,Clear,0,2012-10-20 06:15:00
2:35 AM,52.9,46.6,79,29.87,10.0,Calm,Calm,-,N/A,,Clear,0,2012-10-20 06:35:00
2:55 AM,52.5,46.4,80,29.87,10.0,Calm,Calm,-,N/A,,Clear,0,2012-10-20 06:55:00
3:15 AM,52.2,46.2,80,29.87,10.0,Calm,Calm,-,N/A,,Clear,0,2012-10-20 07:15:00
3:35 AM,52.0,46.9,83,29.87,10.0,Calm,Calm,-,N/A,,Clear,0,2012-10-20 07:35:00
3:55 AM,52.3,47.3,83,29.87,10.0,Calm,Calm,-,N/A,,Clear,0,2012-10-20 07:55:00
4:15 AM,54.0,47.3,78,29.86,10.0,West,3.5,-,N/A,,Clear,270,2012-10-20 08:15:00
4:35 AM,52.5,48.4,86,29.86,10.0,Calm,Calm,-,N/A,,Clear,0,2012-10-20 08:35:00
4:55 AM,52.0,47.8,86,29.88,10.0,Calm,Calm,-,N/A,,Clear,0,2012-10-20 08:55:00
5:15 AM,51.4,46.6,83,29.88,10.0,Calm,Calm,-,N/A,,Clear,0,2012-10-20 09:15:00
5:35 AM,52.0,46.2,81,29.88,10.0,Calm,Calm,-,N/A,,Clear,0,2012-10-20 09:35:00
5:55 AM,50.2,47.3,90,29.89,10.0,Calm,Calm,-,N/A,,Clear,0,2012-10-20 09:55:00
6:15 AM,49.1,46.6,91,29.89,10.0,Calm,Calm,-,N/A,,Clear,0,2012-10-20 10:15:00
6:35 AM,49.8,47.1,90,29.89,10.0,WSW,3.5,-,N/A,,Clear,240,2012-10-20 10:35:00
6:55 AM,50.7,46.9,87,29.90,10.0,WSW,3.5,-,N/A,,Clear,240,2012-10-20 10:55:00
7:15 AM,50.5,46.9,87,29.91,10.0,Calm,Calm,-,N/A,,Clear,0,2012-10-20 11:15:00
7:35 AM,50.2,46.4,87,29.91,10.0,Calm,Calm,-,N/A,,Clear,0,2012-10-20 11:35:00
7:55 AM,49.8,46.6,89,29.92,10.0,Calm,Calm,-,N/A,,Clear,0,2012-10-20 11:55:00
8:15 AM,50.5,46.4,86,29.92,10.0,Calm,Calm,-,N/A,,Clear,0,2012-10-20 12:15:00
8:35 AM,51.1,46.8,85,29.93,10.0,Calm,Calm,-,N/A,,Clear,0,2012-10-20 12:35:00
8:55 AM,52.9,47.7,82,29.93,10.0,Calm,Calm,-,N/A,,Clear,0,2012-10-20 12:55:00
9:15 AM,54.9,47.7,77,29.93,10.0,Calm,Calm,-,N/A,,Clear,0,2012-10-20 13:15:00
9:35 AM,56.8,47.8,72,29.94,10.0,Calm,Calm,-,N/A,,Clear,0,2012-10-20 13:35:00
9:55 AM,58.5,47.7,67,29.94,10.0,Calm,Calm,-,N/A,,Clear,0,2012-10-20 13:55:00
10:15 AM,60.3,48.4,65,29.95,10.0,Calm,Calm,-,N/A,,Clear,0,2012-10-20 14:15:00
10:35 AM,61.7,48.7,62,29.95,10.0,WSW,3.5,-,N/A,,Clear,250,2012-10-20 14:35:00
10:55 AM,63.0,49.3,61,29.95,10.0,West,3.5,-,N/A,,Clear,260,2012-10-20 14:55:00
11:15 AM,64.9,49.6,58,29.95,10.0,Calm,Calm,-,N/A,,Clear,0,2012-10-20 15:15:00
11:35 AM,66.7,49.6,54,29.94,10.0,NNW,3.5,-,N/A,,Clear,330,2012-10-20 15:35:00
11:55 AM,67.6,48.4,50,29.94,10.0,West,5.8,-,N/A,,Clear,280,2012-10-20 15:55:00
12:15 PM,68.5,47.7,47,29.93,10.0,SW,5.8,-,N/A,,Clear,220,2012-10-20 16:15:00
12:35 PM,69.4,47.5,45,29.93,10.0,West,6.9,-,N/A,,Clear,270,2012-10-20 16:35:00
12:55 PM,70.0,46.4,43,29.92,10.0,West,5.8,-,N/A,,Clear,260,2012-10-20 16:55:00
1:15 PM,70.5,46.6,42,29.92,10.0,West,4.6,-,N/A,,Clear,270,2012-10-20 17:15:00
1:35 PM,71.1,47.3,43,29.91,10.0,West,5.8,-,N/A,,Clear,280,2012-10-20 17:35:00
1:55 PM,72.0,47.3,41,29.91,10.0,NNW,6.9,-,N/A,,Clear,330,2012-10-20 17:55:00
2:15 PM,71.8,46.9,41,29.90,10.0,West,5.8,-,N/A,,Clear,280,2012-10-20 18:15:00
2:35 PM,72.0,46.9,41,29.90,10.0,NW,5.8,-,N/A,,Clear,310,2012-10-20 18:35:00
2:55 PM,72.5,47.3,41,29.89,10.0,West,5.8,-,N/A,,Clear,270,2012-10-20 18:55:00
3:15 PM,72.7,47.8,41,29.89,10.0,WNW,8.1,-,N/A,,Clear,290,2012-10-20 19:15:00
3:35 PM,73.4,47.1,39,29.88,10.0,West,3.5,-,N/A,,Clear,270,2012-10-20 19:35:00
3:55 PM,73.4,47.1,39,29.88,10.0,West,3.5,-,N/A,,Clear,270,2012-10-20 19:55:00
4:15 PM,73.9,47.3,39,29.88,10.0,WNW,9.2,-,N/A,,Clear,290,2012-10-20 20:15:00
4:35 PM,73.9,47.5,39,29.88,10.0,Calm,Calm,-,N/A,,Clear,0,2012-10-20 20:35:00
4:55 PM,73.8,47.5,39,29.88,10.0,NW,3.5,-,N/A,,Clear,310,2012-10-20 20:55:00
5:15 PM,73.2,46.8,39,29.88,10.0,Calm,Calm,-,N/A,,Clear,0,2012-10-20 21:15:00
5:35 PM,73.0,47.3,40,29.88,10.0,Calm,Calm,-,N/A,,Clear,0,2012-10-20 21:35:00
5:55 PM,72.5,47.7,41,29.89,10.0,WNW,4.6,-,N/A,,Clear,290,2012-10-20 21:55:00
6:15 PM,71.2,47.1,42,29.89,10.0,Calm,Calm,-,N/A,,Clear,0,2012-10-20 22:15:00
6:35 PM,69.3,48.2,47,29.90,10.0,Calm,Calm,-,N/A,,Clear,0,2012-10-20 22:35:00
6:55 PM,66.6,49.1,53,29.90,10.0,Calm,Calm,-,N/A,,Clear,0,2012-10-20 22:55:00
7:15 PM,63.1,52.0,67,29.91,10.0,Calm,Calm,-,N/A,,Clear,0,2012-10-20 23:15:00
7:35 PM,60.8,51.3,71,29.91,10.0,Calm,Calm,-,N/A,,Clear,0,2012-10-20 23:35:00
7:55 PM,59.7,50.9,73,29.92,10.0,Calm,Calm,-,N/A,,Clear,0,2012-10-20 23:55:00
8:15 PM,58.3,50.7,76,29.92,10.0,Calm,Calm,-,N/A,,Clear,0,2012-10-21 00:15:00
8:35 PM,57.2,51.6,82,29.93,10.0,Calm,Calm,-,N/A,,Clear,0,2012-10-21 00:35:00
8:55 PM,56.5,51.6,84,29.93,10.0,Calm,Calm,-,N/A,,Clear,0,2012-10-21 00:55:00
9:15 PM,55.8,51.6,86,29.94,10.0,Calm,Calm,-,N/A,,Clear,0,2012-10-21 01:15:00
9:35 PM,55.2,51.6,88,29.95,10.0,Calm,Calm,-,N/A,,Clear,0,2012-10-21 01:35:00
9:55 PM,54.5,52.0,91,29.95,10.0,Calm,Calm,-,N/A,,Clear,0,2012-10-21 01:55:00
10:15 PM,54.3,51.6,91,29.96,10.0,Calm,Calm,-,N/A,,Clear,0,2012-10-21 02:15:00
10:35 PM,54.1,51.8,92,29.96,10.0,Calm,Calm,-,N/A,,Clear,0,2012-10-21 02:35:00
10:55 PM,53.8,52.0,94,29.97,10.0,Calm,Calm,-,N/A,,Clear,0,2012-10-21 02:55:00
11:15 PM,53.4,50.4,89,29.97,10.0,Calm,Calm,-,N/A,,Clear,0,2012-10-21 03:15:00
11:35 PM,53.2,50.5,91,29.98,10.0,Calm,Calm,-,N/A,,Clear,0,2012-10-21 03:35:00
11:55 PM,52.9,50.0,90,29.99,10.0,Calm,Calm,-,N/A,,Clear,0,2012-10-21 03:55:00